Jordan Valley WCD
8215 S 1300 W, West Jordan
Last Weather Update:07/30/2011 11:00:00 PM
Date
ETo
ETc
Rain
Irrigation
Req
Temp
Max
Temp
Min
Temp
Avg
Avg RH
Avg Wind
Avg Solar
inches
inches
incehs
inches
F
F
F
%
%
watts/m2
06/01/2011 0.21" 0.17" 0.00" 0.17" 78.3° 54.2° 66.5° 24.1% 4.9 MPH 211.2w/m2
06/02/2011 0.17" 0.14" 0.00" 0.14" 66.1° 44.2° 54.4° 37.8% 3.4 MPH 271.1w/m2
06/03/2011 0.15" 0.12" 0.00" 0.12" 66.6° 37.1° 52.0° 51.6% 0.9 MPH 256.1w/m2
06/04/2011 0.17" 0.13" 0.00" 0.13" 79.1° 38.1° 59.0° 47.7% 1.1 MPH 254.9w/m2
06/05/2011 0.24" 0.19" 0.03" 0.17" 86.4° 46.9° 68.2° 35.5% 2.6 MPH 313.8w/m2
06/06/2011 0.20" 0.16" 0.00" 0.16" 80.3° 51.4° 66.5° 28.9% 5.0 MPH 185.3w/m2
06/07/2011 0.17" 0.14" 0.00" 0.14" 73.1° 43.7° 60.7° 47.6% 1.5 MPH 274.2w/m2
06/08/2011 0.17" 0.14" 0.00" 0.14" 75.0° 45.9° 59.2° 58.1% 2.2 MPH 250.5w/m2
06/09/2011 0.14" 0.11" 0.00" 0.11" 66.7° 43.7° 56.8° 56.5% 1.6 MPH 232.4w/m2
06/10/2011 0.20" 0.16" 0.00" 0.16" 79.7° 38.6° 60.0° 47.8% 1.9 MPH 300.6w/m2
06/11/2011 0.15" 0.12" 0.01" 0.11" 77.1° 51.9° 65.0° 47.0% 1.1 MPH 222.4w/m2
06/12/2011 0.15" 0.12" 0.00" 0.12" 77.1° 51.0° 64.3° 55.0% 1.1 MPH 217.2w/m2
06/13/2011 0.16" 0.12" 0.01" 0.12" 77.9° 52.9° 64.2° 52.0% 1.8 MPH 223.4w/m2
06/14/2011 0.19" 0.15" 0.01" 0.15" 77.9° 51.3° 65.1° 54.8% 0.7 MPH 306.1w/m2
06/15/2011 0.20" 0.16" 0.00" 0.16" 87.6° 51.6° 70.3° 43.4% 2.5 MPH 278.8w/m2
06/16/2011 0.18" 0.14" 0.00" 0.14" 71.4° 53.5° 61.4° 42.8% 2.8 MPH 252.9w/m2
06/17/2011 0.19" 0.15" 0.00" 0.15" 72.6° 40.0° 58.3° 37.7% 1.1 MPH 310.6w/m2
06/18/2011 0.19" 0.15" 0.00" 0.15" 81.1° 44.5° 64.4° 40.3% 2.1 MPH 251.6w/m2
06/19/2011 0.04" 0.03" 0.95" -0.73" 66.2° 47.6° 53.3° 83.8% 0.7 MPH 65.1w/m2
06/20/2011 0.18" 0.14" 0.00" 0.14" 72.4° 46.8° 59.8° 63.7% 0.3 MPH 298.5w/m2
06/21/2011 0.19" 0.15" 0.00" 0.15" 81.6° 44.9° 64.9° 50.3% 0.6 MPH 305.4w/m2
06/22/2011 0.20" 0.16" 0.00" 0.16" 89.4° 48.9° 70.5° 46.8% 0.6 MPH 302.8w/m2
06/23/2011 0.22" 0.17" 0.00" 0.17" 91.8° 63.9° 78.2° 32.6% 3.0 MPH 254.2w/m2
06/24/2011 0.21" 0.16" 0.00" 0.16" 85.9° 56.0° 72.9° 42.3% 1.1 MPH 298.5w/m2
06/25/2011 0.21" 0.17" 0.00" 0.17" 85.9° 54.7° 71.8° 47.4% 1.5 MPH 298.7w/m2
06/26/2011 0.21" 0.16" 0.00" 0.16" 81.6° 55.4° 70.2° 41.6% 1.6 MPH 302.9w/m2
06/27/2011 0.21" 0.17" 0.00" 0.17" 90.9° 51.1° 71.8° 40.3% 1.2 MPH 302.3w/m2
06/28/2011 0.28" 0.22" 0.00" 0.22" 95.2° 61.8° 80.5° 21.3% 5.1 MPH 269.2w/m2
06/29/2011 0.20" 0.16" 0.00" 0.16" 91.9° 71.2° 79.2° 27.1% 4.6 MPH 161.8w/m2
06/30/2011 0.19" 0.15" 0.00" 0.15" 82.0° 62.5° 72.2° 42.8% 1.5 MPH 277.3w/m2
Totals: 5.55" 4.44" 1.01" 3.63" 95.2° 37.1° 65.4° 44.9% 2.0 MPH 258.3w/m2